This is the latest recevied weather packets stored in our database for station/object VK5TRM-13. If no packets are shown the sender has not sent any weather packets the latest 10 day(s).
| Time | Temp. | Humidity | Pressure | Rain* | Wind** | Luminosity | Snow |
|---|---|---|---|---|---|---|---|
| 1777896005 | 13.33° C | 80% | 1019.6 hPa | 0 mm | - | - | - |
| 1777895104 | 13.33° C | 80% | 1019.6 hPa | 0 mm | - | - | - |
| 1777894204 | 13.89° C | 76% | 1019.2 hPa | 0 mm | - | - | - |
| 1777893304 | 13.89° C | 76% | 1019.2 hPa | 0 mm | - | - | - |
| 1777892405 | 13.89° C | 78% | 1018.9 hPa | 0 mm | - | - | - |
| 1777891505 | 13.89° C | 78% | 1018.9 hPa | 0 mm | - | - | - |
| 1777890605 | 14.44° C | 74% | 1018.4 hPa | 0 mm | - | - | - |
| 1777889704 | 14.44° C | 74% | 1018.4 hPa | 0 mm | - | - | - |
| 1777888805 | 15° C | 72% | 1017.9 hPa | 0 mm | - | - | - |
| 1777887905 | 15° C | 72% | 1017.9 hPa | 0 mm | - | - | - |
| 1777887005 | 15.56° C | 70% | 1017.2 hPa | 0 mm | - | - | - |
| 1777886104 | 15.56° C | 70% | 1017.2 hPa | 0 mm | - | - | - |
| 1777885207 | 17.22° C | 64% | 1016.6 hPa | 0 mm | - | - | - |
| 1777884304 | 17.22° C | 64% | 1016.6 hPa | 0 mm | - | - | - |
| 1777883404 | 17.78° C | 59% | 1015.9 hPa | 0 mm | - | - | - |
| 1777882505 | 17.78° C | 59% | 1015.9 hPa | 0 mm | - | - | - |
| 1777881605 | 19.44° C | 45% | 1015.5 hPa | 0 mm | - | - | - |
| 1777880704 | 19.44° C | 45% | 1015.5 hPa | 0 mm | - | - | - |
| 1777879804 | 20° C | 46% | 1015.1 hPa | 0 mm | - | - | - |
| 1777878905 | 20° C | 46% | 1015.1 hPa | 0 mm | - | - | - |
| 1777878005 | 20.56° C | 44% | 1014.9 hPa | 0 mm | - | - | - |
| 1777877105 | 20.56° C | 44% | 1014.9 hPa | 0 mm | - | - | - |
| 1777876205 | 20.56° C | 52% | 1014.5 hPa | 0 mm | - | - | - |
| 1777875305 | 20.56° C | 52% | 1014.5 hPa | 0 mm | - | - | - |
| 1777874405 | 20.56° C | 53% | 1014.4 hPa | 0 mm | - | - | - |
* Rain since midnight (hover to see other rain measurements)
** Current wind speed in m/s (hover to see current wind gust speed)